Time;durP1;ratioP1;P1;durP2;ratioP2;P2;SDS_P1;SDS_P2;PMS_P1;PMS_P2;Temp;Humidity;BMP_temperature;BMP_pressure;BME280_temperature;BME280_humidity;BME280_pressure;Samples;Min_cycle;Max_cycle;Signal;HPM_P1;HPM_P2
2023/06/02 00:00:44;;;;;;;;;10.00;10.00;;;;;16.53;57.56;101447.22;4980311;28;45380;-77
2023/06/02 00:03:10;;;;;;;;;9.67;9.67;;;;;16.54;57.91;101438.16;4961437;28;47793;-76
2023/06/02 00:05:38;;;;;;;;;10.33;10.33;;;;;16.55;57.30;101449.75;4979322;28;45432;-78
2023/06/02 00:08:04;;;;;;;;;10.33;10.33;;;;;16.55;57.60;101452.41;4979319;28;45239;-77
2023/06/02 00:10:29;;;;;;;;;16.00;14.67;;;;;16.38;58.10;101448.88;4961818;28;45509;-74
2023/06/02 00:12:54;;;;;;;;;14.33;11.00;;;;;16.29;58.27;101436.44;4978921;28;45626;-76
2023/06/02 00:15:20;;;;;;;;;10.00;9.67;;;;;16.13;58.56;101432.72;4961342;28;45271;-75
2023/06/02 00:17:45;;;;;;;;;10.67;9.67;;;;;16.17;58.69;101437.75;4957929;28;45286;-75
2023/06/02 00:20:10;;;;;;;;;11.67;8.67;;;;;16.17;58.73;101435.06;4958066;28;45221;-76
2023/06/02 00:22:38;;;;;;;;;14.33;12.67;;;;;16.03;58.80;101444.59;4958011;28;47690;-75
2023/06/02 00:25:04;;;;;;;;;17.33;14.00;;;;;15.96;58.83;101430.13;4957949;28;45636;-76
2023/06/02 00:27:29;;;;;;;;;12.00;12.00;;;;;15.83;59.20;101433.28;4959815;28;45270;-75
2023/06/02 00:29:55;;;;;;;;;12.33;12.00;;;;;15.94;59.55;101441.03;4959735;28;45603;-76
2023/06/02 00:32:20;;;;;;;;;8.67;8.00;;;;;15.66;59.14;101399.38;4959086;28;46178;-75
2023/06/02 00:34:46;;;;;;;;;13.33;11.67;;;;;15.95;59.23;101437.34;4959749;28;45345;-74
2023/06/02 00:37:11;;;;;;;;;15.00;10.33;;;;;16.03;58.96;101447.28;4958288;28;45722;-76
2023/06/02 00:39:36;;;;;;;;;15.33;11.00;;;;;15.76;59.11;101425.03;4959697;28;45516;-76
2023/06/02 00:42:02;;;;;;;;;11.67;9.00;;;;;15.82;59.35;101450.38;4958942;28;48823;-74
2023/06/02 00:44:30;;;;;;;;;16.67;13.33;;;;;15.78;59.70;101451.69;4959072;28;45913;-76
2023/06/02 00:46:56;;;;;;;;;9.67;7.00;;;;;15.29;59.61;101373.69;4959417;28;45285;-75
2023/06/02 00:49:22;;;;;;;;;17.00;14.67;;;;;15.63;60.04;101440.75;4959058;28;45555;-75
2023/06/02 00:51:49;;;;;;;;;13.67;12.00;;;;;15.66;59.72;101450.31;4959312;28;45650;-76
2023/06/02 00:54:16;;;;;;;;;12.00;7.67;;;;;15.44;60.24;101420.34;4958439;28;45561;-75
2023/06/02 00:56:42;;;;;;;;;15.33;13.67;;;;;15.42;60.76;101441.09;4958554;28;45557;-76
2023/06/02 00:59:08;;;;;;;;;16.33;14.33;;;;;15.22;60.92;101420.88;4958987;28;45443;-76
2023/06/02 01:01:35;;;;;;;;;16.00;14.00;;;;;15.42;60.62;101448.28;4958749;28;46472;-76
2023/06/02 01:04:01;;;;;;;;;17.67;16.67;;;;;15.38;60.68;101426.31;4958271;28;45446;-75
2023/06/02 01:06:34;;;;;;;;;16.67;12.33;;;;;15.31;60.63;101438.66;4957360;28;45303;-76
2023/06/02 01:09:03;;;;;;;;;19.00;19.00;;;;;15.27;60.95;101431.94;4959078;28;45269;-75
2023/06/02 01:11:28;;;;;;;;;10.33;9.67;;;;;15.29;61.16;101427.28;4958282;28;46203;-75
2023/06/02 01:13:54;;;;;;;;;18.33;16.00;;;;;15.26;60.62;101416.88;4958618;28;45281;-76
2023/06/02 01:16:20;;;;;;;;;20.00;17.00;;;;;15.35;60.68;101426.63;4958920;28;45300;-75
2023/06/02 01:18:46;;;;;;;;;19.00;17.00;;;;;15.40;60.62;101443.06;4970110;28;45211;-75
2023/06/02 01:21:21;;;;;;;;;20.67;19.67;;;;;15.39;59.96;101428.00;4978230;28;46466;-77
2023/06/02 01:23:50;;;;;;;;;18.33;16.00;;;;;15.35;60.26;101442.72;4977833;28;45448;-77
2023/06/02 01:26:15;;;;;;;;;19.33;17.33;;;;;15.33;60.68;101438.50;4978364;28;45298;-75
2023/06/02 01:28:41;;;;;;;;;17.67;17.67;;;;;15.19;61.22;101438.06;4978934;28;45287;-76
2023/06/02 01:31:20;;;;;;;;;19.67;17.33;;;;;15.28;60.83;101441.66;4977725;28;47038;-74
2023/06/02 01:34:09;;;;;;;;;24.00;18.00;;;;;15.19;61.06;101439.91;4978019;28;45263;-74
2023/06/02 01:36:37;;;;;;;;;18.67;17.67;;;;;15.00;61.72;101440.09;4954337;28;45512;-75
2023/06/02 01:39:05;;;;;;;;;18.33;17.00;;;;;14.97;61.66;101443.94;4977671;28;45424;-75
2023/06/02 01:41:32;;;;;;;;;17.00;15.33;;;;;14.99;61.06;101436.59;4959919;28;47717;-76
2023/06/02 01:44:00;;;;;;;;;19.67;19.67;;;;;15.10;61.58;101454.25;4977380;28;45552;-75
2023/06/02 01:46:26;;;;;;;;;19.67;16.00;;;;;14.75;60.98;101381.03;4977690;28;45349;-75
2023/06/02 01:48:55;;;;;;;;;22.00;20.33;;;;;15.10;61.26;101444.38;4977442;28;45212;-76
2023/06/02 01:51:21;;;;;;;;;20.00;18.00;;;;;14.89;61.15;101420.63;4977793;28;46526;-75
2023/06/02 01:53:47;;;;;;;;;19.00;18.00;;;;;14.43;60.85;101337.94;4978011;28;45358;-75
2023/06/02 01:56:12;;;;;;;;;21.00;18.33;;;;;14.94;61.34;101438.91;4960104;28;45340;-76
2023/06/02 01:58:38;;;;;;;;;14.67;14.67;;;;;14.88;61.59;101443.06;4977983;28;45634;-77
2023/06/02 02:01:03;;;;;;;;;23.00;19.00;;;;;14.78;61.69;101428.91;4975825;28;47899;-75
2023/06/02 02:03:32;;;;;;;;;17.33;15.33;;;;;14.98;61.34;101444.78;4959740;28;46620;-77
2023/06/02 02:05:58;;;;;;;;;32.67;24.67;;;;;14.90;61.51;101449.09;4977629;28;45302;-76
2023/06/02 02:08:23;;;;;;;;;26.00;21.33;;;;;14.74;61.33;101430.22;4977743;28;45491;-75
2023/06/02 02:10:49;;;;;;;;;24.33;20.67;;;;;14.81;61.57;101444.66;4977296;28;45847;-77
2023/06/02 02:13:14;;;;;;;;;22.33;19.67;;;;;14.61;62.01;101427.06;4959826;28;46143;-75
2023/06/02 02:15:40;;;;;;;;;25.00;21.33;;;;;14.76;61.56;101446.94;4977317;28;45294;-75
2023/06/02 02:18:06;;;;;;;;;23.00;22.67;;;;;14.37;61.58;101365.28;4962427;28;45471;-75
2023/06/02 02:20:31;;;;;;;;;22.67;21.33;;;;;14.68;61.77;101421.97;4979163;28;46642;-74
2023/06/02 02:22:57;;;;;;;;;23.00;20.33;;;;;14.53;61.39;101413.63;4981297;28;45375;-75
2023/06/02 02:25:22;;;;;;;;;18.00;13.67;;;;;14.71;61.68;101457.28;4981331;28;45349;-74
2023/06/02 02:27:48;;;;;;;;;23.00;21.33;;;;;14.51;62.13;101453.06;4980849;28;45203;-75
2023/06/02 02:30:13;;;;;;;;;19.33;19.33;;;;;14.51;61.77;101432.50;4981532;28;46500;-77
2023/06/02 02:32:41;;;;;;;;;25.33;22.00;;;;;14.72;61.75;101444.75;4965429;28;45303;-73
2023/06/02 02:35:07;;;;;;;;;23.33;19.33;;;;;14.61;61.03;101424.41;4982892;28;45370;-77
2023/06/02 02:37:33;;;;;;;;;19.00;17.33;;;;;14.82;61.20;101456.22;4963102;28;45427;-74
2023/06/02 02:39:59;;;;;;;;;23.67;22.67;;;;;14.83;60.97;101456.06;4980824;28;46710;-74
2023/06/02 02:42:25;;;;;;;;;24.67;22.00;;;;;14.75;60.31;101439.91;4980266;28;45373;-74
2023/06/02 02:44:50;;;;;;;;;22.33;19.67;;;;;14.84;60.39;101444.38;4980675;28;45329;-76
2023/06/02 02:47:16;;;;;;;;;21.67;19.67;;;;;14.75;60.70;101452.47;4981343;28;45270;-76
2023/06/02 02:49:41;;;;;;;;;18.67;18.67;;;;;14.76;60.64;101457.66;4962882;28;47461;-76
2023/06/02 02:52:07;;;;;;;;;25.00;20.67;;;;;13.90;60.77;101322.72;4979901;28;45883;-74
2023/06/02 02:54:32;;;;;;;;;25.33;20.33;;;;;14.63;60.88;101465.25;4963298;28;45361;-76
2023/06/02 02:56:57;;;;;;;;;25.67;23.67;;;;;14.26;61.10;101406.50;4963017;28;45393;-74
2023/06/02 02:59:23;;;;;;;;;23.67;21.33;;;;;14.53;61.20;101459.97;4980344;28;45368;-76
2023/06/02 03:01:48;;;;;;;;;27.67;22.67;;;;;14.57;60.86;101461.31;4980615;28;45496;-75
2023/06/02 03:04:21;;;;;;;;;29.67;24.33;;;;;14.34;61.27;101452.03;4980163;28;45290;-77
2023/06/02 03:06:49;;;;;;;;;23.00;22.00;;;;;13.90;61.50;101387.72;4962761;28;45279;-76
2023/06/02 03:09:17;;;;;;;;;27.67;23.33;;;;;14.42;61.11;101472.69;4962144;28;48400;-76
2023/06/02 03:11:43;;;;;;;;;29.00;23.00;;;;;14.32;61.67;101472.75;4979673;28;45471;-77
2023/06/02 03:14:10;;;;;;;;;23.33;21.67;;;;;14.19;61.85;101458.88;4979950;28;45270;-74
2023/06/02 03:16:35;;;;;;;;;23.33;23.33;;;;;14.17;62.13;101471.56;4962849;28;45512;-76
2023/06/02 03:19:04;;;;;;;;;23.33;23.33;;;;;14.05;62.46;101456.72;4980519;28;46601;-75
2023/06/02 03:21:41;;;;;;;;;22.00;21.33;;;;;13.98;61.84;101440.44;4978509;28;45323;-76
2023/06/02 03:24:11;;;;;;;;;29.33;24.33;;;;;14.03;62.18;101448.03;4979781;28;45487;-76
2023/06/02 03:26:40;;;;;;;;;27.33;26.00;;;;;14.02;61.73;101459.72;4979898;28;45490;-75
2023/06/02 03:29:06;;;;;;;;;20.67;19.00;;;;;13.89;62.57;101470.72;4978826;28;45671;-76
2023/06/02 03:31:31;;;;;;;;;32.00;27.33;;;;;14.02;62.50;101484.63;4978363;28;45492;-75
2023/06/02 03:33:56;;;;;;;;;28.67;27.67;;;;;13.92;62.12;101470.44;4979705;28;45203;-77
2023/06/02 03:36:22;;;;;;;;;30.67;29.00;;;;;13.97;62.23;101471.66;4962678;28;45587;-74
2023/06/02 03:38:47;;;;;;;;;30.00;22.67;;;;;13.98;62.48;101493.91;4979509;28;45498;-76
2023/06/02 03:41:12;;;;;;;;;24.33;24.33;;;;;13.51;62.40;101403.09;4979392;28;45410;-75
2023/06/02 03:43:38;;;;;;;;;25.33;24.67;;;;;13.89;62.63;101476.91;4979157;28;57011;-75
2023/06/02 03:46:03;;;;;;;;;28.33;26.00;;;;;13.81;62.15;101457.25;4963144;28;45561;-76
2023/06/02 03:48:29;;;;;;;;;29.00;25.67;;;;;13.84;62.68;101465.00;4978289;28;48565;-74
2023/06/02 03:50:54;;;;;;;;;33.00;28.67;;;;;13.73;62.60;101457.16;4979826;28;52016;-75
2023/06/02 03:53:21;;;;;;;;;29.00;24.33;;;;;13.75;62.57;101484.56;4961874;28;45359;-76
2023/06/02 03:55:46;;;;;;;;;29.33;27.67;;;;;13.38;63.54;101454.16;4978304;28;45583;-75
2023/06/02 03:58:12;;;;;;;;;23.67;21.00;;;;;13.52;63.54;101474.25;4961244;28;45721;-74
2023/06/02 04:00:38;;;;;;;;;25.00;23.33;;;;;13.54;63.37;101466.09;4979751;28;45280;-74
2023/06/02 04:03:03;;;;;;;;;32.00;30.67;;;;;13.60;63.11;101487.72;4979619;28;45523;-74
2023/06/02 04:05:29;;;;;;;;;28.33;26.33;;;;;13.74;62.87;101485.56;4978996;28;45258;-75
2023/06/02 04:07:56;;;;;;;;;31.33;28.00;;;;;13.46;63.11;101445.44;4978893;28;45651;-74
2023/06/02 04:10:21;;;;;;;;;29.67;26.33;;;;;13.78;62.52;101484.28;4978892;28;45538;-75
2023/06/02 04:12:47;;;;;;;;;34.67;31.33;;;;;13.85;62.02;101477.38;4962106;28;45288;-75
2023/06/02 04:15:12;;;;;;;;;23.33;23.33;;;;;13.76;62.14;101468.38;4980128;28;45494;-75
2023/06/02 04:17:38;;;;;;;;;31.33;27.33;;;;;13.78;62.47;101486.94;4978747;28;45662;-74
2023/06/02 04:20:03;;;;;;;;;35.00;29.00;;;;;13.71;62.28;101468.00;4978446;28;45377;-74
2023/06/02 04:22:29;;;;;;;;;29.67;29.00;;;;;13.77;62.11;101491.44;4978798;28;45477;-75
2023/06/02 04:24:54;;;;;;;;;30.67;26.33;;;;;12.89;62.33;101355.63;4979352;28;45338;-74
2023/06/02 04:27:20;;;;;;;;;32.33;29.33;;;;;13.70;62.80;101496.53;4960380;28;70048;-75
2023/06/02 04:29:45;;;;;;;;;34.00;30.00;;;;;13.69;62.68;101494.88;4960927;28;45532;-76
2023/06/02 04:32:10;;;;;;;;;27.33;22.00;;;;;13.52;62.79;101484.94;4979145;28;45252;-75
2023/06/02 04:34:36;;;;;;;;;36.00;31.67;;;;;13.40;63.33;101481.56;4961026;28;45505;-75
2023/06/02 04:37:02;;;;;;;;;33.00;30.67;;;;;13.23;63.27;101428.94;4978689;28;48140;-76
2023/06/02 04:39:28;;;;;;;;;33.33;30.00;;;;;13.53;62.51;101459.06;4977370;28;45354;-76
2023/06/02 04:41:56;;;;;;;;;27.33;26.33;;;;;13.64;62.35;101486.44;4977568;28;45690;-75
2023/06/02 04:44:22;;;;;;;;;38.33;29.67;;;;;13.72;62.11;101479.53;4978811;28;45329;-76
2023/06/02 04:46:48;;;;;;;;;41.00;34.00;;;;;13.60;61.74;101458.31;4978782;28;45764;-76
2023/06/02 04:49:13;;;;;;;;;27.00;27.00;;;;;13.77;61.68;101491.44;4978230;28;45529;-75
2023/06/02 04:51:39;;;;;;;;;31.33;31.33;;;;;13.77;61.67;101498.63;4978484;28;45308;-76
2023/06/02 04:54:05;;;;;;;;;38.67;33.00;;;;;13.82;61.52;101501.72;4961483;28;45339;-76
2023/06/02 04:56:31;;;;;;;;;30.00;24.00;;;;;13.59;61.44;101486.03;4978664;28;46256;-75
2023/06/02 04:58:57;;;;;;;;;31.33;28.33;;;;;13.72;62.02;101508.91;4978476;28;45431;-74
2023/06/02 05:01:22;;;;;;;;;28.33;26.67;;;;;13.79;61.45;101499.31;4960531;28;46358;-77
2023/06/02 05:03:48;;;;;;;;;32.00;28.00;;;;;13.79;61.46;101512.69;4978056;28;45572;-75
2023/06/02 05:06:13;;;;;;;;;28.67;27.33;;;;;13.63;61.49;101482.09;4978105;28;45452;-75
2023/06/02 05:08:38;;;;;;;;;15.33;13.67;;;;;13.76;61.10;101479.06;4977808;28;45247;-74
2023/06/02 05:11:05;;;;;;;;;34.67;32.00;;;;;13.67;61.36;101486.16;4977797;28;45515;-75
2023/06/02 05:13:31;;;;;;;;;40.33;35.00;;;;;13.59;61.56;101509.22;4979299;28;45539;-75
2023/06/02 05:15:56;;;;;;;;;24.00;22.33;;;;;13.47;61.70;101500.56;4960598;28;48519;-75
2023/06/02 05:18:22;;;;;;;;;37.33;34.67;;;;;13.33;61.50;101484.97;4977193;28;45479;-77
2023/06/02 05:20:47;;;;;;;;;36.33;33.33;;;;;13.42;61.58;101507.31;4956319;28;45263;-75
2023/06/02 05:23:13;;;;;;;;;33.00;31.33;;;;;13.49;61.80;101498.59;4958887;28;45525;-76
2023/06/02 05:25:40;;;;;;;;;34.67;30.67;;;;;13.41;61.43;101485.09;4961704;28;46451;-75
2023/06/02 05:28:06;;;;;;;;;33.33;32.33;;;;;13.51;61.54;101499.28;4967718;28;45990;-74
2023/06/02 05:30:31;;;;;;;;;30.67;29.33;;;;;13.65;61.67;101496.16;4976575;28;45251;-74
2023/06/02 05:32:56;;;;;;;;;35.33;33.00;;;;;13.84;60.46;101507.75;4987702;28;45530;-75
2023/06/02 05:35:22;;;;;;;;;28.67;28.67;;;;;13.55;60.38;101427.69;4957688;28;60719;-75
2023/06/02 05:37:47;;;;;;;;;26.33;21.67;;;;;14.05;59.74;101500.34;4969623;28;45465;-76
2023/06/02 05:40:13;;;;;;;;;36.33;30.00;;;;;13.95;59.71;101486.19;4962800;28;45391;-75
2023/06/02 05:42:39;;;;;;;;;30.67;29.00;;;;;14.04;59.65;101484.47;4979114;28;45231;-79
2023/06/02 05:45:05;;;;;;;;;31.33;29.67;;;;;14.11;59.06;101478.34;4960366;28;47422;-78
2023/06/02 05:47:31;;;;;;;;;30.67;28.33;;;;;13.92;58.58;101425.00;4975619;28;46200;-78
2023/06/02 05:49:58;;;;;;;;;42.00;34.33;;;;;14.34;58.85;101499.34;4972433;28;45504;-75
2023/06/02 05:52:23;;;;;;;;;28.00;23.67;;;;;14.36;57.74;101482.16;4957626;28;45526;-76
2023/06/02 05:54:49;;;;;;;;;35.00;31.00;;;;;14.38;57.94;101506.06;4956241;28;48256;-74
2023/06/02 05:57:14;;;;;;;;;40.33;35.67;;;;;14.36;57.82;101492.00;4976225;28;45379;-77
2023/06/02 05:59:40;;;;;;;;;32.67;26.00;;;;;14.21;57.89;101479.13;4959913;28;45637;-76
2023/06/02 06:02:06;;;;;;;;;29.33;27.00;;;;;14.40;57.47;101494.22;4956805;28;45633;-74
2023/06/02 06:04:31;;;;;;;;;28.33;25.33;;;;;14.19;56.89;101441.00;4959317;28;46480;-75
2023/06/02 06:06:58;;;;;;;;;39.00;33.00;;;;;14.50;57.19;101511.09;4976923;28;45479;-76
2023/06/02 06:09:24;;;;;;;;;40.33;35.33;;;;;14.38;56.89;101506.06;4941324;28;45519;-76
2023/06/02 06:11:49;;;;;;;;;34.00;29.33;;;;;14.52;57.06;101505.59;4958719;28;45204;-75
2023/06/02 06:14:14;;;;;;;;;31.00;30.00;;;;;14.35;57.08;101450.19;4976328;28;45407;-76
2023/06/02 06:16:41;;;;;;;;;27.33;26.00;;;;;14.94;56.27;101507.69;4976276;28;45267;-76
2023/06/02 06:19:06;;;;;;;;;33.67;32.33;;;;;14.90;55.66;101489.25;4968870;28;46705;-75
2023/06/02 06:21:32;;;;;;;;;36.67;29.00;;;;;15.21;55.46;101510.25;4960547;28;45326;-79
2023/06/02 06:23:57;;;;;;;;;34.67;32.33;;;;;15.34;55.48;101499.13;4975813;28;46603;-73
2023/06/02 06:26:22;;;;;;;;;27.00;24.33;;;;;15.59;54.64;101502.84;4975427;28;45410;-76
2023/06/02 06:28:48;;;;;;;;;39.67;34.00;;;;;15.50;54.03;101456.38;4977529;28;45311;-77
2023/06/02 06:31:13;;;;;;;;;19.33;17.67;;;;;15.74;53.75;101502.09;4977636;28;45489;-76
2023/06/02 06:33:38;;;;;;;;;33.33;31.00;;;;;15.75;53.33;101495.75;4975146;28;46987;-77
2023/06/02 06:36:04;;;;;;;;;36.67;30.00;;;;;15.81;53.52;101496.94;4977257;28;45357;-77
2023/06/02 06:38:29;;;;;;;;;23.33;20.67;;;;;15.42;53.06;101433.06;4977994;28;45405;-78
2023/06/02 06:40:55;;;;;;;;;41.00;35.67;;;;;15.84;53.20;101504.69;4978515;28;45341;-77
2023/06/02 06:43:20;;;;;;;;;30.67;29.00;;;;;16.01;53.25;101514.47;4976927;28;45707;-79
2023/06/02 06:45:46;;;;;;;;;38.00;34.00;;;;;16.32;52.55;101520.13;4976660;28;45457;-74
2023/06/02 06:48:11;;;;;;;;;37.33;34.33;;;;;16.55;51.82;101520.38;4955170;28;45432;-74
2023/06/02 06:50:37;;;;;;;;;36.67;32.67;;;;;16.57;51.24;101504.94;4959256;28;45578;-73
2023/06/02 06:53:03;;;;;;;;;34.67;31.67;;;;;16.69;50.70;101514.41;4959793;28;47480;-75
2023/06/02 06:55:29;;;;;;;;;34.00;29.33;;;;;16.80;50.90;101512.38;4976989;28;45353;-74
2023/06/02 06:57:54;;;;;;;;;32.33;30.33;;;;;16.15;50.33;101404.88;4976416;28;45322;-74
2023/06/02 07:00:20;;;;;;;;;38.33;31.67;;;;;16.88;49.82;101513.25;4976302;28;45516;-76
2023/06/02 07:02:48;;;;;;;;;34.00;27.33;;;;;16.41;50.41;101462.78;4978652;28;46356;-76
2023/06/02 07:05:14;;;;;;;;;27.67;26.00;;;;;16.79;50.38;101513.41;4962372;28;45849;-76
2023/06/02 07:07:39;;;;;;;;;43.00;32.33;;;;;16.85;50.35;101515.44;4976330;28;45978;-74
2023/06/02 07:10:05;;;;;;;;;41.00;35.00;;;;;16.93;49.87;101513.59;4975530;28;45500;-76
2023/06/02 07:12:30;;;;;;;;;34.33;32.67;;;;;16.73;49.86;101482.69;4953323;28;48523;-74
2023/06/02 07:14:56;;;;;;;;;26.00;26.00;;;;;16.86;49.19;101458.03;4973999;28;52175;-76
2023/06/02 07:17:21;;;;;;;;;34.67;27.67;;;;;17.86;47.95;101495.19;4974000;28;45563;-74
2023/06/02 07:19:46;;;;;;;;;29.67;28.67;;;;;18.88;45.36;101506.81;4953379;28;45599;-74
2023/06/02 07:22:12;;;;;;;;;32.67;25.33;;;;;19.53;43.58;101492.75;4971345;28;46953;-74
2023/06/02 07:24:37;;;;;;;;;28.67;27.33;;;;;20.45;41.39;101508.56;4975467;28;45473;-74
2023/06/02 07:27:03;;;;;;;;;29.00;26.67;;;;;21.22;40.85;101500.59;4972735;28;45302;-74
2023/06/02 07:29:29;;;;;;;;;26.67;23.00;;;;;22.11;38.45;101490.81;4974381;28;45283;-74
2023/06/02 07:31:54;;;;;;;;;23.33;21.00;;;;;22.55;36.53;101480.56;4974627;28;45941;-75
2023/06/02 07:34:19;;;;;;;;;22.00;18.00;;;;;23.18;35.62;101508.19;4973109;28;45591;-75
2023/06/02 07:36:47;;;;;;;;;29.00;26.67;;;;;22.42;35.24;101436.09;4975894;28;45767;-78
2023/06/02 07:39:13;;;;;;;;;28.00;25.00;;;;;22.18;36.85;101504.38;4977116;28;45306;-78
2023/06/02 07:41:39;;;;;;;;;31.33;29.67;;;;;21.78;37.67;101506.84;4949345;28;47260;-77
2023/06/02 07:44:04;;;;;;;;;33.00;27.00;;;;;21.51;38.29;101511.28;4968440;28;46834;-76
2023/06/02 07:46:30;;;;;;;;;26.33;26.33;;;;;21.18;39.05;101483.94;4975241;28;45597;-76
2023/06/02 07:48:55;;;;;;;;;23.67;23.67;;;;;20.63;39.26;101447.69;4972741;28;46350;-76
2023/06/02 07:51:20;;;;;;;;;24.00;22.67;;;;;20.84;39.70;101503.59;4972920;28;45836;-76
2023/06/02 07:53:46;;;;;;;;;27.33;26.33;;;;;20.75;39.44;101501.19;4969226;28;45686;-74
2023/06/02 07:56:11;;;;;;;;;13.00;13.00;;;;;20.30;40.35;101517.50;4968758;28;46110;-76
2023/06/02 07:58:36;;;;;;;;;25.67;22.67;;;;;20.37;40.49;101517.56;4974026;28;46471;-74
2023/06/02 08:01:02;;;;;;;;;21.33;17.33;;;;;20.86;39.56;101495.28;4969288;28;55215;-75
2023/06/02 08:03:27;;;;;;;;;22.67;19.67;;;;;21.66;38.63;101502.22;4954412;28;45489;-75
2023/06/02 08:05:53;;;;;;;;;19.33;17.33;;;;;22.29;36.78;101492.16;4973719;28;46984;-75
2023/06/02 08:08:18;;;;;;;;;23.00;16.67;;;;;22.69;35.46;101493.94;4956805;28;45477;-75
2023/06/02 08:10:43;;;;;;;;;22.00;19.33;;;;;22.72;35.27;101479.97;4970014;28;47552;-75
2023/06/02 08:13:11;;;;;;;;;21.67;20.67;;;;;23.01;34.83;101502.34;4955448;28;45976;-76
2023/06/02 08:15:36;;;;;;;;;16.00;15.00;;;;;23.25;34.10;101490.88;4973459;28;45361;-75
2023/06/02 08:18:02;;;;;;;;;17.33;16.00;;;;;23.67;33.91;101502.34;4956344;28;45443;-75
2023/06/02 08:20:28;;;;;;;;;16.67;15.67;;;;;23.78;33.52;101498.13;4974381;28;46282;-75
2023/06/02 08:22:55;;;;;;;;;15.33;14.67;;;;;23.95;33.73;101485.75;4975296;28;45441;-74
2023/06/02 08:25:20;;;;;;;;;17.67;17.67;;;;;24.55;32.48;101484.47;4974759;28;45836;-74
2023/06/02 08:27:45;;;;;;;;;13.33;12.33;;;;;24.36;31.45;101451.97;4973207;28;45873;-74
2023/06/02 08:30:12;;;;;;;;;17.00;15.33;;;;;24.63;32.25;101496.13;4973670;28;46412;-75
2023/06/02 08:32:38;;;;;;;;;20.67;18.67;;;;;24.82;32.25;101501.44;4974414;28;45535;-76
2023/06/02 08:35:03;;;;;;;;;17.00;17.00;;;;;25.20;31.59;101480.69;4954231;28;45738;-74
2023/06/02 08:37:31;;;;;;;;;17.33;15.00;;;;;25.53;30.75;101483.94;4974609;28;45474;-73
2023/06/02 08:39:57;;;;;;;;;16.00;16.00;;;;;25.80;29.74;101475.50;4948754;28;46782;-76
2023/06/02 08:42:25;;;;;;;;;19.67;18.33;;;;;25.33;29.51;101423.41;4974126;28;45287;-77
2023/06/02 08:44:51;;;;;;;;;15.33;14.00;;;;;25.57;29.82;101465.25;4973202;28;46670;-72
2023/06/02 08:47:21;;;;;;;;;14.33;14.33;;;;;25.81;29.51;101477.16;4973848;28;45544;-75
2023/06/02 08:49:47;;;;;;;;;13.33;13.33;;;;;26.11;28.94;101466.34;4971238;28;46491;-74
2023/06/02 08:52:23;;;;;;;;;13.67;13.67;;;;;26.79;28.52;101485.13;4951591;28;45478;-74
2023/06/02 08:54:49;;;;;;;;;15.33;15.33;;;;;27.21;27.42;101472.28;4972510;28;45705;-73
2023/06/02 08:57:16;;;;;;;;;16.67;13.00;;;;;26.83;27.53;101379.91;4972504;28;45564;-73
2023/06/02 08:59:44;;;;;;;;;16.67;16.67;;;;;27.72;26.31;101455.19;4968705;28;45786;-75
2023/06/02 09:02:09;;;;;;;;;17.33;17.00;;;;;27.23;26.91;101445.56;4973397;28;45529;-74
2023/06/02 09:04:35;;;;;;;;;16.00;16.00;;;;;27.99;26.59;101457.38;4955076;28;45386;-75
2023/06/02 09:07:12;;;;;;;;;19.33;18.67;;;;;27.79;26.83;101471.44;4973873;28;45448;-75
2023/06/02 09:09:43;;;;;;;;;14.67;13.33;;;;;27.95;26.11;101416.03;4968421;28;46634;-76
2023/06/02 09:12:09;;;;;;;;;19.00;17.67;;;;;28.77;25.17;101452.06;4951469;28;46326;-72
2023/06/02 09:14:36;;;;;;;;;14.33;13.33;;;;;29.22;24.21;101472.25;4968749;28;45908;-72
2023/06/02 09:17:02;;;;;;;;;19.67;17.33;;;;;29.81;23.95;101467.09;4967622;28;45428;-69
2023/06/02 09:19:48;;;;;;;;;22.00;18.67;;;;;29.82;24.22;101472.31;4973020;28;45665;-75
2023/06/02 09:22:13;;;;;;;;;24.33;21.00;;;;;30.10;23.25;101470.50;4970624;28;45475;-72
2023/06/02 09:24:39;;;;;;;;;22.00;19.33;;;;;29.68;23.59;101433.50;4971765;28;45597;-80
2023/06/02 09:27:04;;;;;;;;;18.33;18.33;;;;;30.15;23.31;101443.13;4971196;28;45451;-72
2023/06/02 09:29:30;;;;;;;;;19.67;19.00;;;;;30.53;22.60;101459.47;4973309;28;45691;-72
2023/06/02 09:31:58;;;;;;;;;20.67;18.67;;;;;30.97;22.49;101459.31;4969211;28;46551;-72
2023/06/02 09:34:34;;;;;;;;;22.67;22.00;;;;;31.63;21.72;101462.53;4971970;28;45452;-72
2023/06/02 09:37:06;;;;;;;;;22.00;22.00;;;;;32.35;20.83;101445.25;4968630;28;45509;-71
2023/06/02 09:39:53;;;;;;;;;19.67;17.33;;;;;33.12;20.37;101461.84;4940907;28;47893;-73
2023/06/02 09:42:19;;;;;;;;;18.00;18.00;;;;;33.41;19.88;101467.59;4969699;28;45722;-72
2023/06/02 09:45:04;;;;;;;;;20.67;20.33;;;;;33.49;19.56;101459.59;4970748;28;45608;-73
2023/06/02 09:47:37;;;;;;;;;17.00;15.67;;;;;33.05;19.77;101453.03;4971096;28;45556;-72
2023/06/02 09:50:03;;;;;;;;;17.33;14.67;;;;;32.16;20.94;101457.00;4970805;28;46269;-70
2023/06/02 09:52:29;;;;;;;;;17.67;17.00;;;;;31.99;20.59;101454.47;4954594;28;45530;-71
2023/06/02 09:54:54;;;;;;;;;16.67;16.00;;;;;31.60;21.23;101438.31;4971121;28;45580;-72
2023/06/02 09:57:20;;;;;;;;;17.67;16.00;;;;;31.05;21.92;101447.88;4972700;28;45330;-71
2023/06/02 09:59:45;;;;;;;;;24.67;19.33;;;;;30.64;22.25;101452.19;4971453;28;45627;-73
2023/06/02 10:02:12;;;;;;;;;17.67;17.00;;;;;29.82;23.63;101411.19;4972585;28;45475;-72
2023/06/02 10:04:37;;;;;;;;;12.33;12.33;;;;;29.57;24.08;101441.84;4949169;28;45544;-74
2023/06/02 10:07:21;;;;;;;;;16.33;16.33;;;;;28.92;25.07;101461.66;4972918;28;45332;-72
2023/06/02 10:10:06;;;;;;;;;19.33;14.00;;;;;28.17;25.40;101459.94;4947094;28;48840;-73
2023/06/02 10:12:49;;;;;;;;;20.33;19.00;;;;;27.08;27.05;101461.59;4970383;28;45453;-71
2023/06/02 10:15:31;;;;;;;;;16.33;15.00;;;;;26.06;28.55;101458.84;4968393;28;45507;-72
2023/06/02 10:18:24;;;;;;;;;20.00;18.67;;;;;25.06;29.97;101441.88;4968547;28;45564;-73
2023/06/02 10:21:13;;;;;;;;;21.67;20.67;;;;;24.12;31.43;101448.09;4971704;28;45757;-72
2023/06/02 10:23:57;;;;;;;;;21.67;20.67;;;;;23.85;32.07;101434.63;4963893;28;45445;-71
2023/06/02 10:26:40;;;;;;;;;17.33;16.00;;;;;23.35;33.29;101438.91;4971445;28;45568;-74
2023/06/02 10:29:08;;;;;;;;;21.00;20.00;;;;;22.52;34.12;101373.41;4971393;28;46376;-71
2023/06/02 10:31:33;;;;;;;;;19.33;17.67;;;;;22.85;34.12;101452.06;4971684;28;46469;-73
2023/06/02 10:34:00;;;;;;;;;22.67;20.33;;;;;22.78;34.86;101449.31;4968455;28;45964;-74
2023/06/02 10:36:46;;;;;;;;;24.67;21.00;;;;;22.36;35.13;101444.22;4967948;28;45898;-74
2023/06/02 10:39:43;;;;;;;;;23.67;20.33;;;;;22.31;35.72;101447.56;4952939;28;45590;-72
2023/06/02 10:42:15;;;;;;;;;22.67;22.67;;;;;22.23;35.34;101427.97;4971027;28;45909;-72
2023/06/02 10:44:41;;;;;;;;;19.67;19.33;;;;;21.92;35.80;101437.38;4970017;28;45608;-73
2023/06/02 10:47:18;;;;;;;;;17.33;17.00;;;;;21.81;36.39;101455.03;4974042;28;45483;-73
2023/06/02 10:50:00;;;;;;;;;21.67;21.33;;;;;21.06;36.64;101395.44;4975253;28;45668;-71
2023/06/02 10:52:27;;;;;;;;;25.67;22.67;;;;;21.30;37.04;101448.28;4971598;28;45614;-74
2023/06/02 10:55:16;;;;;;;;;21.67;18.00;;;;;21.17;37.75;101448.97;4975747;28;45428;-78
2023/06/02 10:57:55;;;;;;;;;20.67;19.33;;;;;21.18;37.58;101439.81;4936795;28;45521;-71
2023/06/02 11:00:30;;;;;;;;;24.67;22.67;;;;;20.96;37.88;101457.94;4953848;28;45514;-73
2023/06/02 11:02:56;;;;;;;;;25.33;22.67;;;;;20.93;38.06;101437.56;4944704;28;47073;-75
2023/06/02 11:05:26;;;;;;;;;24.00;21.67;;;;;21.09;37.45;101435.59;4973020;28;45313;-72
2023/06/02 11:08:10;;;;;;;;;19.67;19.67;;;;;21.04;37.84;101446.19;4966876;28;45532;-71
2023/06/02 11:10:56;;;;;;;;;23.33;20.67;;;;;21.03;37.80;101447.22;4972748;28;45664;-71